Terminal Aerodrome Forecast
Issued by NWS

Home | Current Version | Previous Version | Graphics & Text | Print | Product List | Glossary On
Versions: 1 2 3 4 5 6 7 8 9 10 11 12 13 14 15 16 17 18 19
857
FTUS43 KMPX 241050 AAB
TAFRNH
TAF AMD
KRNH 241050Z 2411/2506 05002KT 3SM BR SKC
      TEMPO 2411/2412 6SM BR SKC
     FM241200 10004KT P6SM SKC
     FM241700 15006KT P6SM FEW250
     FM250000 14005KT P6SM SCT250=

USA.gov is the U.S. government's official web portal to all federal, state and local government web resources and services.